• Join FlightAware (Why Join?)
  • Login
  • US Flag 
06:24AM EDT


 

Airport Tracker/Info


-or-


 

Live Flight TrackerFlight Track Log ✈ N569SC ✈ 01-May-2013 ✈ KCLT - KMSN

Flight Track Log - Related Links

Times and Time Zones

All times are in EDT time to prevent confusion due to time zone crossing. See the N569SC flight status page for this flight to view local times or setup timezone preferences in your user account.

Time Position Orientation Groundspeed Altitude Reporting Facility
EDT Latitude Longitude Course Direction KTS MPH feet Rate Location/Type
03:07PM 35.2228 -80.9572 344° North 181 208 1,700  Level Atlanta Center
03:08PM 35.2942 -80.9828 344° North 257 296 6,100 3,240 Climbing Atlanta Center
03:09PM 35.3711 -80.9747 North 285 328 8,800 3,120 Climbing Atlanta Center
03:10PM 35.4519 -80.9514 13° North 308 354 12,400 3,000 Climbing Atlanta Center
03:11PM 35.5381 -80.9658 352° North 308 354 14,800 2,760 Climbing Atlanta Center
03:12PM 35.6078 -81.0119 332° Northwest 318 366 18,000 2,940 Climbing Atlanta Center
03:13PM 35.7014 -81.0775 330° Northwest 342 394 20,700 2,520 Climbing Atlanta Center
03:14PM 35.7906 -81.1408 330° Northwest 357 411 23,100 2,400 Climbing Atlanta Center
03:15PM 35.8794 -81.2067 329° Northwest 370 426 25,600 2,280 Climbing Atlanta Center
03:16PM 35.9603 -81.2656 329° Northwest 370 426 27,700 1,860 Climbing Atlanta Center
03:17PM 36.0492 -81.3292 330° Northwest 370 426 29,400 1,800 Climbing Atlanta Center
03:18PM 36.1403 -81.3956 330° Northwest 370 426 31,400 1,980 Climbing Atlanta Center
03:19PM 36.2314 -81.4622 329° Northwest 370 426 33,400 1,260 Climbing Atlanta Center
03:20PM 36.3225 -81.5314 329° Northwest 370 426 34,000 540 Climbing Atlanta Center
03:21PM 36.4219 -81.5928 334° Northwest 390 449 34,600 1,440 Climbing Atlanta Center
03:22PM 36.5214 -81.6725 327° Northwest 396 456 36,900 2,220 Climbing Atlanta Center
03:23PM 36.6103 -81.7397 329° Northwest 384 442 39,100 2,100 Climbing Atlanta Center
03:24PM 36.6947 -81.8019 329° Northwest 364 419 41,100 1,260 Climbing Atlanta Center
03:26PM 36.8950 -81.9561 328° Northwest 348 400 43,600 900 Climbing Indianapolis Center
03:28PM 36.9706 -82.0367 320° Northwest 355 409 44,400 600 Climbing Indianapolis Center
03:29PM 37.0475 -82.1153 321° Northwest 356 410 44,900 240 Climbing Indianapolis Center
03:30PM 37.1375 -82.2083 321° Northwest 359 413 45,000  Climbing Indianapolis Center
03:31PM 37.2186 -82.2911 321° Northwest 371 427 45,000  Level Indianapolis Center
03:32PM 37.3019 -82.3772 321° Northwest 385 443 45,000  Level Indianapolis Center
03:33PM 37.3864 -82.4656 320° Northwest 393 452 45,000 240 Level Indianapolis Center
03:34PM 37.4725 -82.5528 321° Northwest 398 458 45,500 600 Climbing Indianapolis Center
03:35PM 37.5703 -82.6536 321° Northwest 390 449 46,300 660 Climbing Indianapolis Center
03:36PM 37.6511 -82.7389 320° Northwest 382 440 46,900 300 Climbing Indianapolis Center
03:37PM 37.7322 -82.8231 321° Northwest 377 434 47,000  Climbing Indianapolis Center
03:38PM 37.8139 -82.9089 320° Northwest 381 438 47,000  Level Indianapolis Center
03:39PM 37.8950 -82.9950 320° Northwest 382 440 47,000  Level Indianapolis Center
03:40PM 37.9928 -83.0967 321° Northwest 389 448 47,000  Level Indianapolis Center
03:41PM 38.0756 -83.1856 320° Northwest 390 449 47,000  Level Indianapolis Center
03:42PM 38.1589 -83.2742 320° Northwest 391 450 47,000  Level Indianapolis Center
03:43PM 38.2417 -83.3622 320° Northwest 388 447 47,000  Level Indianapolis Center
03:44PM 38.3258 -83.4508 320° Northwest 392 451 47,000  Level Indianapolis Center
03:45PM 38.4225 -83.5536 320° Northwest 387 445 47,000  Level Indianapolis Center
03:46PM 38.5061 -83.6456 319° Northwest 393 452 47,000  Level Indianapolis Center
03:47PM 38.5900 -83.7328 321° Northwest 390 449 47,000  Level Indianapolis Center
03:48PM 38.6736 -83.8247 319° Northwest 395 455 47,000  Level Indianapolis Center
03:49PM 38.7583 -83.9169 320° Northwest 395 455 47,000  Level Indianapolis Center
03:50PM 38.8436 -84.0081 320° Northwest 394 453 47,000  Level Indianapolis Center
03:51PM 38.9283 -84.1022 319° Northwest 396 456 47,000  Level Indianapolis Center
03:52PM 39.0269 -84.2097 320° Northwest 394 453 47,000  Level Indianapolis Center
03:53PM 39.1097 -84.3022 319° Northwest 391 450 47,000  Level Indianapolis Center
03:54PM 39.1944 -84.3953 320° Northwest 393 452 47,000  Level Indianapolis Center
03:55PM 39.2786 -84.4883 319° Northwest 394 453 47,000  Level Indianapolis Center
03:56PM 39.3619 -84.5814 319° Northwest 391 450 47,000  Level Indianapolis Center
03:57PM 39.4469 -84.6739 320° Northwest 395 455 47,000  Level Indianapolis Center
03:59PM 39.5294 -84.7669 319° Northwest 390 449 47,000  Level Indianapolis Center
04:00PM 39.6150 -84.8617 320° Northwest 397 457 47,000  Level Indianapolis Center
04:01PM 39.7042 -84.9622 319° Northwest 393 452 47,000  Level Indianapolis Center
04:02PM 39.7889 -85.0569 319° Northwest 400 460 47,000  Level Indianapolis Center
04:03PM 39.8858 -85.1672 319° Northwest 397 457 47,000  Level Indianapolis Center
04:04PM 39.9703 -85.2636 319° Northwest 400 460 47,000  Level Indianapolis Center
04:05PM 40.0528 -85.3586 319° Northwest 398 458 47,000  Level Indianapolis Center
04:06PM 40.1369 -85.4542 319° Northwest 398 458 47,000  Level Indianapolis Center
04:06PM 40.1656 -85.4850 321° Northwest 400 460 47,000  Level Chicago Center
04:07PM 40.2500 -85.5819 319° Northwest 402 463 47,000  Level Chicago Center
04:08PM 40.3344 -85.6797 319° Northwest 405 466 47,000  Level Chicago Center
04:09PM 40.4194 -85.7775 319° Northwest 406 467 47,000  Level Chicago Center
04:10PM 40.5192 -85.8942 318° Northwest 410 472 47,000  Level Chicago Center
04:11PM 40.6056 -85.9936 319° Northwest 412 474 47,000  Level Chicago Center
04:12PM 40.6906 -86.0947 318° Northwest 412 474 47,000  Level Chicago Center
04:13PM 40.7750 -86.1947 318° Northwest 409 471 47,000  Level Chicago Center
04:14PM 40.8611 -86.2967 318° Northwest 414 476 47,000 -120 Level Chicago Center
04:15PM 40.9469 -86.3992 318° Northwest 414 476 46,800 -540 Descending Chicago Center
04:16PM 41.0333 -86.5011 318° Northwest 417 480 45,900 -960 Descending Chicago Center
04:17PM 41.1381 -86.6242 319° Northwest 418 481 44,900 -960 Descending Chicago Center
04:18PM 41.2244 -86.7283 318° Northwest 418 481 43,900 -1,200 Descending Chicago Center
04:20PM 41.3153 -86.8389 318° Northwest 422 486 42,500 -1,380 Descending Chicago Center
04:21PM 41.4028 -86.9450 318° Northwest 429 494 41,100 -1,380 Descending Chicago Center
04:22PM 41.4908 -87.0519 318° Northwest 433 498 39,700 -1,320 Descending Chicago Center
04:23PM 41.5808 -87.1603 318° Northwest 439 505 38,400 -1,500 Descending Chicago Center
04:24PM 41.6858 -87.2881 318° Northwest 433 498 36,700 -1,500 Descending Chicago Center
04:25PM 41.7814 -87.3758 326° Northwest 428 493 35,300 -1,380 Descending Chicago Center
04:26PM 41.8811 -87.4444 333° Northwest 412 474 33,900 -1,380 Descending Chicago Center
04:27PM 41.9814 -87.5139 333° Northwest 409 471 32,500 -1,380 Descending Chicago Center
04:28PM 42.0769 -87.5831 332° Northwest 399 459 31,100 -1,500 Descending Chicago Center
04:29PM 42.1919 -87.6661 332° Northwest 395 455 29,400 -1,500 Descending Chicago Center
04:30PM 42.2703 -87.7633 317° Northwest 392 451 28,000 -1,380 Descending Chicago Center
04:31PM 42.3297 -87.8789 305° West 386 444 26,600 -1,800 Descending Chicago Center
04:32PM 42.4064 -88.0136 308° West 387 445 24,400 -2,040 Descending Chicago Center
04:33PM 42.4731 -88.1322 307° West 393 452 22,500 -1,920 Descending Chicago Center
04:34PM 42.5381 -88.2472 308° West 384 442 20,500 -1,260 Descending Chicago Center
04:35PM 42.5992 -88.3572 307° West 366 421 20,000 -300 Descending Chicago Center
04:36PM 42.6567 -88.4606 307° West 346 398 20,000 -1,020 Level Chicago Center
04:37PM 42.7119 -88.5608 307° West 334 384 18,000 -2,340 Descending Chicago Center
04:38PM 42.7544 -88.6983 293° West 334 384 15,200 -2,520 Descending Chicago Center
04:39PM 42.7906 -88.8097 294° West 323 372 12,800 -2,040 Descending Chicago Center
04:40PM 42.8419 -88.9019 307° West 307 353 11,000 -1,560 Descending Chicago Center
04:41PM 42.8961 -88.9894 310° West 299 344 9,600 -1,860 Descending Chicago Center
04:42PM 42.9356 -89.0889 298° West 297 342 7,200 -2,280 Descending Chicago Center
04:43PM 42.9753 -89.1814 300° West 287 330 5,000 -2,040 Descending Chicago Center
04:44PM 43.0186 -89.2869 299° West 279 321 3,100 -1,500 Descending Chicago Center
04:45PM 43.0692 -89.3472 319° Northwest 255 293 2,000 -1,020 Descending Chicago Center
04:46PM 43.1128 -89.3442 North 185 213 1,100 -900 Descending Chicago Center